createdAt,value
2019-05-09T00:02:34.550Z,84.02
2019-05-09T00:05:04.946Z,84.72
2019-05-09T00:07:35.170Z,85.04
2019-05-09T00:10:05.425Z,85.11
2019-05-09T00:12:35.370Z,85.51
2019-05-09T00:15:05.947Z,85.44
2019-05-09T00:17:36.213Z,85.26
2019-05-09T00:20:26.209Z,85.41
2019-05-09T00:22:56.067Z,85.33
2019-05-09T00:25:26.230Z,85.16
2019-05-09T00:27:56.227Z,85.64
2019-05-09T00:30:44.162Z,86.03
2019-05-09T00:33:15.983Z,86.27
2019-05-09T00:35:45.932Z,86.50
2019-05-09T00:38:17.270Z,86.75
2019-05-09T00:40:57.847Z,86.65
2019-05-09T00:43:19.166Z,86.35
2019-05-09T00:46:09.172Z,85.75
2019-05-09T00:49:07.303Z,85.89
2019-05-09T00:51:37.245Z,85.43
2019-05-09T00:54:08.248Z,85.23
2019-05-09T00:56:38.180Z,85.23
2019-05-09T00:59:08.105Z,85.28
2019-05-09T01:01:37.973Z,85.43
2019-05-09T01:04:07.820Z,85.14
2019-05-09T01:06:39.007Z,84.89
2019-05-09T01:09:08.920Z,84.70
2019-05-09T01:11:38.864Z,84.69
2019-05-09T01:14:10.159Z,84.76
2019-05-09T01:16:40.010Z,84.84
2019-05-09T01:19:09.933Z,84.11
2019-05-09T01:21:39.852Z,83.88
2019-05-09T01:24:09.784Z,83.99
2019-05-09T01:26:39.713Z,84.34
2019-05-09T01:29:09.653Z,84.50
2019-05-09T01:31:40.971Z,84.66
2019-05-09T01:34:17.849Z,84.61
2019-05-09T01:37:07.324Z,84.89
2019-05-09T01:39:37.491Z,85.24
2019-05-09T01:42:07.504Z,85.46
2019-05-09T01:44:37.351Z,85.56
2019-05-09T01:47:07.869Z,85.52
2019-05-09T01:49:37.804Z,85.42
2019-05-09T01:52:07.736Z,85.58
2019-05-09T01:54:39.333Z,85.64
2019-05-09T01:57:09.253Z,85.57
2019-05-09T01:59:39.118Z,85.35
2019-05-09T02:02:10.122Z,85.39
2019-05-09T02:04:41.129Z,84.69
2019-05-09T02:07:13.302Z,84.51
2019-05-09T02:09:43.446Z,84.39
2019-05-09T02:12:14.225Z,83.58
2019-05-09T02:15:05.965Z,83.62
2019-05-09T02:18:00.699Z,84.41
2019-05-09T02:20:20.917Z,84.84
2019-05-09T02:22:50.766Z,85.09
2019-05-09T02:25:20.695Z,85.27
2019-05-09T02:27:50.623Z,85.15
2019-05-09T02:30:20.562Z,85.11
2019-05-09T02:32:50.481Z,83.94
2019-05-09T02:35:20.401Z,84.37
2019-05-09T02:37:50.175Z,84.73
2019-05-09T02:40:20.116Z,85.00
2019-05-09T02:42:50.042Z,84.87
2019-05-09T02:45:20.369Z,85.17
2019-05-09T02:47:50.290Z,85.28
2019-05-09T02:50:20.328Z,85.38
2019-05-09T02:52:50.569Z,85.44
2019-05-09T02:55:20.420Z,85.31
2019-05-09T02:57:51.985Z,85.23
2019-05-09T03:00:39.672Z,85.09
2019-05-09T03:03:20.376Z,85.04
2019-05-09T03:05:50.312Z,85.06
2019-05-09T03:08:20.424Z,85.20
2019-05-09T03:10:50.635Z,85.09
2019-05-09T03:13:20.491Z,85.07
2019-05-09T03:15:52.657Z,85.15
2019-05-09T03:18:22.559Z,84.82
2019-05-09T03:21:14.293Z,85.08
2019-05-09T03:23:44.221Z,85.24
2019-05-09T03:26:19.324Z,85.39
2019-05-09T03:29:00.210Z,85.37
2019-05-09T03:31:30.387Z,85.35
2019-05-09T03:34:00.306Z,85.48
2019-05-09T03:36:30.160Z,85.49
2019-05-09T03:38:59.923Z,85.02
2019-05-09T03:41:29.772Z,85.21
2019-05-09T03:43:59.549Z,85.39
2019-05-09T03:46:40.065Z,85.34
2019-05-09T03:49:10.192Z,85.35
2019-05-09T03:51:41.406Z,85.42
2019-05-09T03:54:11.663Z,85.32
2019-05-09T03:56:45.454Z,84.92
2019-05-09T03:59:17.621Z,85.20
2019-05-09T04:01:50.193Z,85.19
2019-05-09T04:04:19.574Z,85.24
2019-05-09T04:06:49.483Z,85.24
2019-05-09T04:09:19.426Z,85.36
2019-05-09T04:11:49.216Z,85.32
2019-05-09T04:14:22.857Z,85.37
2019-05-09T04:16:52.717Z,85.64
2019-05-09T04:19:22.561Z,85.74
2019-05-09T04:21:52.618Z,85.64
2019-05-09T04:24:23.464Z,85.53
2019-05-09T04:27:02.696Z,85.27
2019-05-09T04:29:32.914Z,85.07
2019-05-09T04:32:02.754Z,85.22
2019-05-09T04:34:38.089Z,85.32
2019-05-09T04:37:11.621Z,85.36
2019-05-09T04:39:40.678Z,85.38
2019-05-09T04:42:10.675Z,85.26
2019-05-09T04:44:51.455Z,85.36
2019-05-09T04:47:18.788Z,85.29
2019-05-09T04:49:48.889Z,85.33
2019-05-09T04:52:19.408Z,85.23
2019-05-09T04:54:49.254Z,85.20
2019-05-09T04:57:19.117Z,85.23
2019-05-09T04:59:48.988Z,85.28
2019-05-09T05:02:48.441Z,85.32
2019-05-09T05:05:18.745Z,85.20
2019-05-09T05:07:48.929Z,85.20
2019-05-09T05:10:18.863Z,85.24
2019-05-09T05:12:48.829Z,85.16
2019-05-09T05:15:20.552Z,85.15
2019-05-09T05:17:50.528Z,85.12
2019-05-09T05:20:23.500Z,84.97
2019-05-09T05:22:58.953Z,85.15
2019-05-09T05:25:28.799Z,84.94
2019-05-09T05:27:59.629Z,84.19
2019-05-09T05:30:29.830Z,84.40
2019-05-09T05:33:21.560Z,84.72
2019-05-09T05:35:57.361Z,84.91
2019-05-09T05:38:27.633Z,85.17
2019-05-09T05:40:57.923Z,85.15
2019-05-09T05:43:40.893Z,84.85
2019-05-09T05:46:08.081Z,85.30
2019-05-09T05:48:39.093Z,85.31
2019-05-09T05:51:09.010Z,85.42
2019-05-09T05:53:38.815Z,85.34
2019-05-09T05:56:08.730Z,85.41
2019-05-09T05:58:38.733Z,85.37
2019-05-09T06:01:08.532Z,84.62
2019-05-09T06:03:38.494Z,84.93
2019-05-09T06:06:08.941Z,84.94
2019-05-09T06:08:38.908Z,84.58
2019-05-09T06:11:12.057Z,84.20
2019-05-09T06:13:53.228Z,84.32
2019-05-09T06:16:13.074Z,84.61
2019-05-09T06:18:43.017Z,84.76
2019-05-09T06:21:12.999Z,85.05
2019-05-09T06:23:42.928Z,85.17
2019-05-09T06:26:12.881Z,85.21
2019-05-09T06:28:43.907Z,85.09
2019-05-09T06:31:13.852Z,84.49
2019-05-09T06:33:46.929Z,84.60
2019-05-09T06:36:15.407Z,84.36
2019-05-09T06:38:45.341Z,84.21
2019-05-09T06:41:17.279Z,84.00
2019-05-09T06:43:49.757Z,83.97
2019-05-09T06:46:34.019Z,83.86
2019-05-09T06:49:26.853Z,83.70
2019-05-09T06:51:40.662Z,83.63
2019-05-09T06:54:10.806Z,83.50
2019-05-09T06:56:40.993Z,83.53
2019-05-09T06:59:11.063Z,83.06
2019-05-09T07:01:51.461Z,82.99
2019-05-09T07:04:29.022Z,82.90
2019-05-09T07:07:03.080Z,81.86
2019-05-09T07:09:38.417Z,81.93
2019-05-09T07:12:08.151Z,82.08
2019-05-09T07:14:41.466Z,82.19
2019-05-09T07:17:10.050Z,82.13
2019-05-09T07:19:43.784Z,81.02
2019-05-09T07:22:28.029Z,81.56
2019-05-09T07:25:19.903Z,79.70
2019-05-09T07:27:49.884Z,79.94
2019-05-09T07:30:37.663Z,80.01
2019-05-09T07:33:20.315Z,79.83
2019-05-09T07:35:50.245Z,79.81
2019-05-09T07:38:29.203Z,79.69
2019-05-09T07:41:00.759Z,79.64
2019-05-09T07:43:30.794Z,79.24
2019-05-09T07:46:08.540Z,78.52
2019-05-09T07:48:38.325Z,78.75
2019-05-09T07:51:09.295Z,77.15
2019-05-09T07:53:39.245Z,77.66
2019-05-09T07:56:09.178Z,78.07
2019-05-09T07:58:39.436Z,77.83
2019-05-09T08:01:09.315Z,77.14
2019-05-09T08:03:39.265Z,77.15
2019-05-09T08:06:09.210Z,77.25
2019-05-09T08:08:39.112Z,77.22
2019-05-09T08:11:09.196Z,77.43
2019-05-09T08:13:39.719Z,77.31
2019-05-09T08:16:14.574Z,77.99
2019-05-09T08:18:41.389Z,78.04
2019-05-09T08:21:11.339Z,75.89
2019-05-09T08:23:41.826Z,75.71
2019-05-09T08:26:11.750Z,75.68
2019-05-09T08:28:41.628Z,75.25
2019-05-09T08:31:12.332Z,75.50
2019-05-09T08:33:42.623Z,75.78
2019-05-09T08:36:12.806Z,76.63
2019-05-09T08:38:42.615Z,77.18
2019-05-09T08:41:18.401Z,76.97
2019-05-09T08:43:48.382Z,77.02
2019-05-09T08:46:18.523Z,77.05
2019-05-09T08:48:48.814Z,76.24
2019-05-09T08:51:50.829Z,76.49
2019-05-09T08:54:28.504Z,76.36
2019-05-09T08:56:58.544Z,73.77
2019-05-09T08:59:28.495Z,74.79
2019-05-09T09:02:12.390Z,75.03
2019-05-09T09:04:32.234Z,75.60
2019-05-09T09:07:02.468Z,75.27
2019-05-09T09:09:32.908Z,75.40
2019-05-09T09:12:02.880Z,76.20
2019-05-09T09:14:32.831Z,76.02
2019-05-09T09:17:02.677Z,75.86
2019-05-09T09:19:33.615Z,76.07
2019-05-09T09:22:03.559Z,77.07
2019-05-09T09:24:33.488Z,77.33
2019-05-09T09:27:03.718Z,76.54
2019-05-09T09:29:33.641Z,76.23
2019-05-09T09:32:03.566Z,76.71
2019-05-09T09:34:33.490Z,76.17
2019-05-09T09:37:06.055Z,75.79
2019-05-09T09:39:35.031Z,75.72
2019-05-09T09:42:04.970Z,75.27
2019-05-09T09:44:34.886Z,74.23
2019-05-09T09:47:07.225Z,74.01
2019-05-09T09:49:38.455Z,73.91
2019-05-09T09:52:08.659Z,73.71
2019-05-09T09:54:38.907Z,73.09
2019-05-09T09:57:09.819Z,73.96
2019-05-09T10:00:01.906Z,73.99
2019-05-09T10:02:34.671Z,73.22
2019-05-09T10:05:04.942Z,73.27
2019-05-09T10:07:34.910Z,73.52
2019-05-09T10:10:07.730Z,73.16
2019-05-09T10:12:43.522Z,73.56
2019-05-09T10:15:18.982Z,71.50
2019-05-09T10:18:00.308Z,72.44
2019-05-09T10:20:52.021Z,73.01
2019-05-09T10:23:23.043Z,73.17
2019-05-09T10:25:52.993Z,72.45
2019-05-09T10:28:22.995Z,72.89
2019-05-09T10:30:52.945Z,73.44
2019-05-09T10:33:22.862Z,73.74
2019-05-09T10:35:52.998Z,73.60
2019-05-09T10:38:22.881Z,72.87
2019-05-09T10:40:53.485Z,73.04
2019-05-09T10:43:48.732Z,73.47
2019-05-09T10:46:47.604Z,73.68
2019-05-09T10:49:02.408Z,73.76
2019-05-09T10:51:32.354Z,73.46
2019-05-09T10:54:02.384Z,73.25
2019-05-09T10:56:32.144Z,73.29
2019-05-09T10:59:02.022Z,72.27
2019-05-09T11:01:31.984Z,72.87
2019-05-09T11:04:01.925Z,73.15
2019-05-09T11:06:31.890Z,72.04
2019-05-09T11:09:01.833Z,71.91
2019-05-09T11:11:31.827Z,71.88
2019-05-09T11:14:01.906Z,71.56
2019-05-09T11:16:45.516Z,71.55
2019-05-09T11:19:03.552Z,72.14
2019-05-09T11:21:33.521Z,73.04
2019-05-09T11:24:03.492Z,73.10
2019-05-09T11:26:33.493Z,72.77
2019-05-09T11:29:03.439Z,71.88
2019-05-09T11:31:33.433Z,72.09
2019-05-09T11:34:03.681Z,71.61
2019-05-09T11:36:33.693Z,71.90
2019-05-09T11:39:10.219Z,71.68
2019-05-09T11:41:38.496Z,72.63
2019-05-09T11:44:11.016Z,71.65
2019-05-09T11:46:40.822Z,71.37
2019-05-09T11:49:10.744Z,71.16
2019-05-09T11:51:40.655Z,70.47
2019-05-09T11:54:10.520Z,68.93
2019-05-09T11:56:40.406Z,70.30
2019-05-09T11:59:10.362Z,68.95
2019-05-09T12:01:40.329Z,68.81
2019-05-09T12:04:13.268Z,69.58
2019-05-09T12:06:43.217Z,68.36
2019-05-09T12:09:14.824Z,70.12
2019-05-09T12:11:45.035Z,70.72
2019-05-09T12:14:15.473Z,70.25
2019-05-09T12:16:48.047Z,66.52
2019-05-09T12:19:18.254Z,66.67
2019-05-09T12:21:48.639Z,67.40
2019-05-09T12:24:20.262Z,67.28
2019-05-09T12:27:09.665Z,66.24
2019-05-09T12:29:39.960Z,65.31
2019-05-09T12:32:09.972Z,65.49
2019-05-09T12:34:39.920Z,65.92
2019-05-09T12:37:09.902Z,64.39
2019-05-09T12:39:39.844Z,66.23
2019-05-09T12:42:09.771Z,63.59
2019-05-09T12:44:39.883Z,64.07
2019-05-09T12:47:09.968Z,64.76
2019-05-09T12:49:39.844Z,66.19
2019-05-09T12:52:09.802Z,66.94
2019-05-09T12:54:39.734Z,66.84
2019-05-09T12:57:09.673Z,65.72
2019-05-09T12:59:49.052Z,66.09
2019-05-09T13:02:11.563Z,64.43
2019-05-09T13:04:41.815Z,62.77
2019-05-09T13:07:11.785Z,63.52
2019-05-09T13:09:42.080Z,64.85
2019-05-09T13:12:12.117Z,64.76
2019-05-09T13:14:42.069Z,64.65
2019-05-09T13:17:43.236Z,65.56
2019-05-09T13:20:17.937Z,65.92
2019-05-09T13:22:49.401Z,66.45
2019-05-09T13:25:19.299Z,67.34
2019-05-09T13:27:52.672Z,63.35
2019-05-09T13:30:20.937Z,65.72
2019-05-09T13:32:50.691Z,65.64
2019-05-09T13:35:20.638Z,65.86
2019-05-09T13:37:50.580Z,66.09
2019-05-09T13:40:20.865Z,66.32
2019-05-09T13:42:50.824Z,66.33
2019-05-09T13:45:20.790Z,65.38
2019-05-09T13:47:50.991Z,65.72
2019-05-09T13:50:20.918Z,64.91
2019-05-09T13:52:50.801Z,65.90
2019-05-09T13:55:20.686Z,66.20
2019-05-09T13:57:50.883Z,64.98
2019-05-09T14:00:20.850Z,64.21
2019-05-09T14:02:50.807Z,65.17
2019-05-09T14:05:20.977Z,65.58
2019-05-09T14:07:54.715Z,66.19
2019-05-09T14:10:22.452Z,66.26
2019-05-09T14:13:05.537Z,66.79
2019-05-09T14:15:23.978Z,67.80
2019-05-09T14:17:54.245Z,69.22
2019-05-09T14:20:24.199Z,70.01
2019-05-09T14:22:54.476Z,70.71
2019-05-09T14:25:24.477Z,71.32
2019-05-09T14:27:55.041Z,73.95
2019-05-09T14:30:27.401Z,75.21
2019-05-09T14:32:56.648Z,75.05
2019-05-09T14:35:27.743Z,77.44
2019-05-09T14:37:59.177Z,76.22
2019-05-09T14:40:29.080Z,74.90
2019-05-09T14:42:59.108Z,75.46
2019-05-09T14:45:29.040Z,76.02
2019-05-09T14:47:58.928Z,75.98
2019-05-09T14:50:29.935Z,76.35
2019-05-09T14:53:00.038Z,76.13
2019-05-09T14:55:30.321Z,76.85
2019-05-09T14:58:00.638Z,77.50
2019-05-09T15:00:30.640Z,78.69
2019-05-09T15:03:00.499Z,76.75
2019-05-09T15:05:30.455Z,77.02
2019-05-09T15:08:00.699Z,76.85
2019-05-09T15:10:30.638Z,76.97
2019-05-09T15:13:00.500Z,77.61
2019-05-09T15:15:32.592Z,78.31
2019-05-09T15:18:02.307Z,78.24
2019-05-09T15:20:32.148Z,78.24
2019-05-09T15:23:02.071Z,78.17
2019-05-09T15:25:32.301Z,78.07
2019-05-09T15:28:03.441Z,78.69
2019-05-09T15:30:33.630Z,79.28
2019-05-09T15:33:03.887Z,79.63
2019-05-09T15:35:33.892Z,77.76
2019-05-09T15:38:04.517Z,75.91
2019-05-09T15:40:34.640Z,77.02
2019-05-09T15:43:08.300Z,76.75
2019-05-09T15:45:50.386Z,76.03
2019-05-09T15:48:20.791Z,73.00
2019-05-09T15:50:51.035Z,74.39
2019-05-09T15:53:22.061Z,75.25
2019-05-09T15:55:52.563Z,73.49
2019-05-09T15:58:23.467Z,70.46
2019-05-09T16:00:54.115Z,71.74
2019-05-09T16:03:24.133Z,72.06
2019-05-09T16:05:54.647Z,71.80
2019-05-09T16:08:25.095Z,70.34
2019-05-09T16:10:57.921Z,67.46
2019-05-09T16:13:28.439Z,68.66
2019-05-09T16:16:00.060Z,68.05
2019-05-09T16:18:30.194Z,66.54
2019-05-09T16:21:00.651Z,65.68
2019-05-09T16:23:30.716Z,65.52
2019-05-09T16:26:01.352Z,64.86
2019-05-09T16:28:31.625Z,64.59
2019-05-09T16:31:02.357Z,64.16
2019-05-09T16:33:32.736Z,63.69
2019-05-09T16:36:03.652Z,61.86
2019-05-09T16:38:43.010Z,61.30
2019-05-09T16:41:07.694Z,62.17
2019-05-09T16:43:39.171Z,62.05
2019-05-09T16:46:12.075Z,61.67
2019-05-09T16:48:42.435Z,61.23
2019-05-09T16:51:12.667Z,62.40
2019-05-09T16:53:42.897Z,62.69
2019-05-09T16:56:12.905Z,63.26
2019-05-09T16:58:43.078Z,63.50
2019-05-09T17:01:13.112Z,64.02
2019-05-09T17:03:43.050Z,64.06
2019-05-09T17:06:12.960Z,64.61
2019-05-09T17:08:42.919Z,66.53
2019-05-09T17:11:13.282Z,67.49
2019-05-09T17:13:43.216Z,68.35
2019-05-09T17:16:13.171Z,68.44
2019-05-09T17:18:43.124Z,67.89
2019-05-09T17:21:25.233Z,67.15
2019-05-09T17:23:55.669Z,67.12
2019-05-09T17:26:28.226Z,66.67
2019-05-09T17:28:57.622Z,67.10
2019-05-09T17:31:27.805Z,67.29
2019-05-09T17:33:58.032Z,67.30
2019-05-09T17:36:28.980Z,66.92
2019-05-09T17:38:58.926Z,68.16
2019-05-09T17:41:28.783Z,68.22
2019-05-09T17:43:59.792Z,67.82
2019-05-09T17:46:29.732Z,67.84
2019-05-09T17:48:59.673Z,68.23
2019-05-09T17:51:35.680Z,68.48
2019-05-09T17:54:01.527Z,67.38
2019-05-09T17:56:31.811Z,68.10
2019-05-09T17:59:01.676Z,68.55
2019-05-09T18:01:31.642Z,68.84
2019-05-09T18:04:01.906Z,68.87
2019-05-09T18:06:31.840Z,68.92
2019-05-09T18:09:01.777Z,68.74
2019-05-09T18:11:32.261Z,69.77
2019-05-09T18:14:02.187Z,70.78
2019-05-09T18:16:32.485Z,71.07
2019-05-09T18:19:02.628Z,71.84
2019-05-09T18:21:47.262Z,71.93
2019-05-09T18:24:05.587Z,71.78
2019-05-09T18:26:38.061Z,72.98
2019-05-09T18:29:07.301Z,74.94
2019-05-09T18:31:51.090Z,76.70
2019-05-09T18:34:21.347Z,78.15
2019-05-09T18:36:52.163Z,80.62
2019-05-09T18:39:22.740Z,82.93
2019-05-09T18:41:53.218Z,86.31
2019-05-09T18:44:23.432Z,86.32
2019-05-09T18:46:53.570Z,87.27
2019-05-09T18:49:23.515Z,88.02
2019-05-09T18:52:03.213Z,88.46
2019-05-09T18:54:25.314Z,88.08
2019-05-09T18:56:55.242Z,88.74
2019-05-09T18:59:25.441Z,89.76
2019-05-09T19:01:57.013Z,88.81
2019-05-09T19:04:28.147Z,89.10
2019-05-09T19:06:58.412Z,88.59
2019-05-09T19:09:28.367Z,89.03
2019-05-09T19:11:58.217Z,88.93
2019-05-09T19:14:28.520Z,89.52
2019-05-09T19:17:16.771Z,90.04
2019-05-09T19:19:53.250Z,89.43
2019-05-09T19:22:23.448Z,90.06
2019-05-09T19:24:53.376Z,89.89
2019-05-09T19:27:23.298Z,90.65
2019-05-09T19:29:53.247Z,89.77
2019-05-09T19:32:23.111Z,89.64
2019-05-09T19:34:53.043Z,89.15
2019-05-09T19:37:23.138Z,89.49
2019-05-09T19:39:53.672Z,89.91
2019-05-09T19:42:23.798Z,90.00
2019-05-09T19:44:53.701Z,90.42
2019-05-09T19:47:23.710Z,90.04
2019-05-09T19:49:53.553Z,89.74
2019-05-09T19:52:37.423Z,90.12
2019-05-09T19:54:55.045Z,90.26
2019-05-09T19:57:24.819Z,90.11
2019-05-09T19:59:54.657Z,90.43
2019-05-09T20:02:24.523Z,90.54
2019-05-09T20:04:55.428Z,91.01
2019-05-09T20:07:25.625Z,90.64
2019-05-09T20:10:01.917Z,90.47
2019-05-09T20:12:53.823Z,89.82
2019-05-09T20:15:24.746Z,89.34
2019-05-09T20:17:54.851Z,89.10
2019-05-09T20:20:25.382Z,89.10
2019-05-09T20:22:55.233Z,88.86
2019-05-09T20:25:25.455Z,89.35
2019-05-09T20:27:56.323Z,88.68
2019-05-09T20:30:26.229Z,88.72
2019-05-09T20:32:56.080Z,88.41
2019-05-09T20:35:26.004Z,88.41
2019-05-09T20:37:56.211Z,88.26
2019-05-09T20:40:26.660Z,88.54
2019-05-09T20:42:56.854Z,88.39
2019-05-09T20:45:26.980Z,88.46
2019-05-09T20:47:56.936Z,88.14
2019-05-09T20:50:27.063Z,88.12
2019-05-09T20:53:09.273Z,87.98
2019-05-09T20:55:28.981Z,88.15
2019-05-09T20:57:59.093Z,87.63
2019-05-09T21:00:29.158Z,87.82
2019-05-09T21:02:59.272Z,87.82
2019-05-09T21:05:29.239Z,87.79
2019-05-09T21:07:59.287Z,88.04
2019-05-09T21:10:29.760Z,88.23
2019-05-09T21:12:59.863Z,88.17
2019-05-09T21:15:30.267Z,88.66
2019-05-09T21:18:00.503Z,88.57
2019-05-09T21:20:30.917Z,88.77
2019-05-09T21:23:00.985Z,88.88
2019-05-09T21:25:33.428Z,89.25
2019-05-09T21:28:03.059Z,89.41
2019-05-09T21:30:33.197Z,89.57
2019-05-09T21:33:03.587Z,89.75
2019-05-09T21:35:33.445Z,89.44
2019-05-09T21:38:03.393Z,89.67
2019-05-09T21:40:34.328Z,89.59
2019-05-09T21:43:04.631Z,89.73
2019-05-09T21:45:34.575Z,89.28
2019-05-09T21:48:04.496Z,89.69
2019-05-09T21:50:34.469Z,89.62
2019-05-09T21:53:04.422Z,89.74
2019-05-09T21:55:35.088Z,89.90
2019-05-09T21:58:05.143Z,89.93
2019-05-09T22:00:38.307Z,89.82
2019-05-09T22:03:08.875Z,90.03
2019-05-09T22:05:38.802Z,89.85
2019-05-09T22:08:08.931Z,90.10
2019-05-09T22:10:38.795Z,90.31
2019-05-09T22:13:09.030Z,90.41
2019-05-09T22:15:39.940Z,90.59
2019-05-09T22:18:09.812Z,90.09
2019-05-09T22:20:39.667Z,89.86
2019-05-09T22:23:09.595Z,89.76
2019-05-09T22:25:39.870Z,89.86
2019-05-09T22:28:09.797Z,89.82
2019-05-09T22:30:39.737Z,89.85
2019-05-09T22:33:09.740Z,89.25
2019-05-09T22:35:39.911Z,89.45
2019-05-09T22:38:10.150Z,89.57
2019-05-09T22:40:40.392Z,89.51
2019-05-09T22:43:10.324Z,89.55
2019-05-09T22:45:40.186Z,89.29
2019-05-09T22:48:10.125Z,89.29
2019-05-09T22:50:39.976Z,89.42
2019-05-09T22:53:09.819Z,89.02
2019-05-09T22:55:40.039Z,88.66
2019-05-09T22:58:09.934Z,88.79
2019-05-09T23:00:39.879Z,88.41
2019-05-09T23:03:09.822Z,88.34
2019-05-09T23:05:39.755Z,88.30
2019-05-09T23:08:09.863Z,88.44
2019-05-09T23:10:39.652Z,88.42
2019-05-09T23:13:09.515Z,88.34
2019-05-09T23:15:39.756Z,87.21
2019-05-09T23:18:09.715Z,87.24
2019-05-09T23:20:59.132Z,86.71
2019-05-09T23:23:36.151Z,86.96
2019-05-09T23:26:06.061Z,86.91
2019-05-09T23:28:37.008Z,86.93
2019-05-09T23:31:10.754Z,86.74
2019-05-09T23:33:42.061Z,86.45
2019-05-09T23:36:11.977Z,86.21
2019-05-09T23:38:59.419Z,85.90
2019-05-09T23:41:29.361Z,86.12
2019-05-09T23:43:59.321Z,86.17
2019-05-09T23:46:29.389Z,86.61
2019-05-09T23:48:59.677Z,86.61
2019-05-09T23:51:44.944Z,86.72
2019-05-09T23:54:45.366Z,86.93
2019-05-09T23:57:24.093Z,85.53
